createdAt,value
2023-03-07T00:01:41.502Z,35.20
2023-03-07T00:06:43.422Z,42.83
2023-03-07T00:11:45.256Z,35.88
2023-03-07T00:16:51.234Z,42.10
2023-03-07T00:21:53.195Z,40.87
2023-03-07T00:26:55.004Z,37.93
2023-03-07T00:31:56.821Z,42.03
2023-03-07T00:36:58.675Z,42.53
2023-03-07T00:42:00.527Z,38.47
2023-03-07T00:47:02.616Z,39.50
2023-03-07T00:52:04.872Z,39.10
2023-03-07T00:57:06.773Z,38.27
2023-03-07T01:02:08.585Z,41.67
2023-03-07T01:07:10.434Z,41.60
2023-03-07T01:12:12.300Z,40.00
2023-03-07T01:17:14.121Z,42.13
2023-03-07T01:22:16.017Z,40.35
2023-03-07T01:27:17.945Z,42.03
2023-03-07T01:32:19.869Z,39.00
2023-03-07T01:37:21.847Z,40.60
2023-03-07T01:42:23.939Z,41.30
2023-03-07T01:47:27.570Z,40.90
2023-03-07T01:52:53.567Z,39.80
2023-03-07T01:57:58.723Z,38.88
2023-03-07T02:03:26.340Z,37.53
2023-03-07T02:08:30.788Z,35.67
2023-03-07T02:13:32.892Z,36.53
2023-03-07T02:18:40.301Z,35.90
2023-03-07T02:24:03.612Z,34.30
2023-03-07T02:29:05.645Z,33.20
2023-03-07T02:34:31.408Z,32.70
2023-03-07T02:39:48.561Z,29.97
2023-03-07T02:45:01.554Z,29.73
2023-03-07T02:50:07.831Z,28.45
2023-03-07T02:55:12.921Z,27.70
2023-03-07T03:00:21.753Z,30.20
2023-03-07T03:05:23.629Z,28.57
2023-03-07T03:10:27.333Z,31.20
2023-03-07T03:15:29.593Z,23.13
2023-03-07T03:20:32.135Z,28.50
2023-03-07T03:25:34.063Z,26.07
2023-03-07T03:30:36.118Z,26.63
2023-03-07T03:35:39.877Z,29.03
2023-03-07T03:40:41.961Z,36.73
2023-03-07T03:45:44.002Z,26.98
2023-03-07T03:50:45.953Z,30.83
2023-03-07T03:55:47.897Z,27.45
2023-03-07T04:00:49.750Z,25.93
2023-03-07T04:05:51.589Z,25.23
2023-03-07T04:10:53.541Z,25.53
2023-03-07T04:15:55.572Z,26.70
2023-03-07T04:20:57.902Z,25.20
2023-03-07T04:26:01.647Z,22.97
2023-03-07T04:31:06.161Z,28.38
2023-03-07T04:36:09.139Z,25.70
2023-03-07T04:41:16.696Z,25.27
2023-03-07T04:46:22.836Z,28.95
2023-03-07T04:51:24.740Z,27.05
2023-03-07T04:56:26.833Z,25.07
2023-03-07T05:01:29.536Z,23.77
2023-03-07T05:06:32.696Z,31.20
2023-03-07T05:11:35.036Z,25.60
2023-03-07T05:16:37.064Z,24.87
2023-03-07T05:21:40.911Z,26.85
2023-03-07T05:26:43.516Z,26.13
2023-03-07T05:31:45.513Z,25.60
2023-03-07T05:36:48.858Z,19.27
2023-03-07T05:41:51.809Z,25.40
2023-03-07T05:46:54.183Z,24.85
2023-03-07T05:51:56.240Z,20.70
2023-03-07T05:56:58.297Z,19.03
2023-03-07T06:02:00.242Z,17.05
2023-03-07T06:07:02.130Z,23.13
2023-03-07T06:12:04.422Z,22.10
2023-03-07T06:17:07.091Z,20.23
2023-03-07T06:22:09.670Z,23.52
2023-03-07T06:27:11.422Z,19.83
2023-03-07T06:32:13.166Z,19.42
2023-03-07T06:37:14.888Z,20.35
2023-03-07T06:42:16.706Z,20.30
2023-03-07T06:47:18.714Z,18.70
2023-03-07T06:52:20.506Z,15.45
2023-03-07T06:57:22.658Z,16.98
2023-03-07T07:02:24.432Z,19.58
2023-03-07T07:07:26.454Z,19.67
2023-03-07T07:12:28.187Z,19.00
2023-03-07T07:17:30.541Z,19.30
2023-03-07T07:22:33.332Z,15.15
2023-03-07T07:27:36.648Z,15.82
2023-03-07T07:32:39.233Z,16.30
2023-03-07T07:37:41.659Z,16.00
2023-03-07T07:42:43.470Z,12.23
2023-03-07T07:47:54.603Z,14.90
2023-03-07T07:52:57.315Z,15.68
2023-03-07T07:57:59.449Z,14.27
2023-03-07T08:03:01.347Z,11.45
2023-03-07T08:08:03.272Z,10.88
2023-03-07T08:13:04.904Z,12.00
2023-03-07T08:18:06.609Z,11.02
2023-03-07T08:23:08.650Z,13.65
2023-03-07T08:28:10.331Z,12.00
2023-03-07T08:33:11.989Z,13.07
2023-03-07T08:38:13.633Z,13.18
2023-03-07T08:43:15.256Z,12.82
2023-03-07T08:48:20.746Z,13.00
2023-03-07T08:53:23.045Z,13.07
2023-03-07T08:58:24.646Z,14.13
2023-03-07T09:03:26.394Z,14.18
2023-03-07T09:08:28.029Z,13.50
2023-03-07T09:13:29.706Z,15.52
2023-03-07T09:18:31.783Z,15.93
2023-03-07T09:23:33.676Z,14.07
2023-03-07T09:28:35.304Z,16.67
2023-03-07T09:33:36.971Z,14.68
2023-03-07T09:38:39.497Z,12.65
2023-03-07T09:43:51.587Z,10.00
2023-03-07T09:49:34.233Z,13.45
2023-03-07T09:55:03.279Z,13.13
2023-03-07T10:00:21.177Z,12.18
2023-03-07T10:05:36.849Z,10.63
2023-03-07T10:10:44.357Z,13.25
2023-03-07T10:15:50.303Z,12.80
2023-03-07T10:21:19.779Z,13.63
2023-03-07T10:26:29.302Z,11.90
2023-03-07T10:31:36.289Z,12.65
2023-03-07T10:36:55.238Z,13.50
2023-03-07T10:42:04.972Z,11.10
2023-03-07T10:47:06.645Z,13.65
2023-03-07T10:52:20.847Z,13.95
2023-03-07T10:57:28.380Z,14.43
2023-03-07T11:02:37.116Z,13.20
2023-03-07T11:07:38.803Z,15.50
2023-03-07T11:12:45.593Z,13.40
2023-03-07T11:17:48.596Z,15.70
2023-03-07T11:23:07.573Z,13.75
2023-03-07T11:28:30.146Z,11.98
2023-03-07T11:33:44.335Z,12.75
2023-03-07T11:39:00.556Z,13.65
2023-03-07T11:44:30.262Z,14.15
2023-03-07T11:49:40.829Z,11.82
2023-03-07T11:55:00.799Z,13.02
2023-03-07T12:00:17.948Z,15.02
2023-03-07T12:05:56.556Z,14.02
2023-03-07T12:11:33.675Z,13.73
2023-03-07T12:16:55.475Z,13.48
2023-03-07T12:22:18.988Z,14.93
2023-03-07T12:27:32.447Z,17.15
2023-03-07T12:32:36.334Z,14.07
2023-03-07T12:37:45.988Z,15.93
2023-03-07T12:43:13.430Z,13.70
2023-03-07T12:48:33.567Z,13.93
2023-03-07T12:53:37.748Z,14.25
2023-03-07T12:58:50.063Z,15.75
2023-03-07T13:03:59.930Z,15.35
2023-03-07T13:09:04.050Z,14.98
2023-03-07T13:14:05.945Z,15.25
2023-03-07T13:19:35.779Z,14.35
2023-03-07T13:24:42.579Z,15.48
2023-03-07T13:30:12.421Z,15.52
2023-03-07T13:35:34.108Z,14.52
2023-03-07T13:40:35.681Z,14.43
2023-03-07T13:45:37.223Z,15.60
2023-03-07T13:50:44.926Z,19.33
2023-03-07T13:55:52.550Z,14.93
2023-03-07T14:01:20.580Z,15.55
2023-03-07T14:06:32.351Z,14.80
2023-03-07T14:11:33.896Z,14.18
2023-03-07T14:16:42.216Z,15.18
2023-03-07T14:21:57.357Z,13.85
2023-03-07T14:27:04.133Z,14.98
2023-03-07T14:32:22.035Z,13.93
2023-03-07T14:37:28.981Z,13.75
2023-03-07T14:42:54.967Z,14.07
2023-03-07T14:48:14.840Z,14.65
2023-03-07T14:53:21.877Z,13.85
2023-03-07T14:58:30.288Z,13.85
2023-03-07T15:03:32.844Z,14.93
2023-03-07T15:08:38.300Z,13.38
2023-03-07T15:14:17.776Z,14.95
2023-03-07T15:19:29.785Z,15.50
2023-03-07T15:24:35.652Z,13.88
2023-03-07T15:29:39.263Z,14.50
2023-03-07T15:34:40.922Z,14.20
2023-03-07T15:39:42.563Z,14.70
2023-03-07T15:44:53.850Z,16.13
2023-03-07T15:50:06.386Z,15.10
2023-03-07T15:55:18.790Z,14.55
2023-03-07T16:00:30.798Z,15.00
2023-03-07T16:05:36.964Z,15.30
2023-03-07T16:10:44.339Z,16.83
2023-03-07T16:15:46.127Z,14.18
2023-03-07T16:20:48.253Z,15.18
2023-03-07T16:25:50.109Z,13.80
2023-03-07T16:30:51.764Z,15.63
2023-03-07T16:35:53.476Z,14.68
2023-03-07T16:40:55.481Z,15.68
2023-03-07T16:45:57.769Z,14.05
2023-03-07T16:50:59.485Z,14.52
2023-03-07T16:56:01.150Z,14.43
2023-03-07T17:01:02.967Z,14.70
2023-03-07T17:06:04.909Z,14.82
2023-03-07T17:11:17.176Z,16.00
2023-03-07T17:16:19.257Z,15.40
2023-03-07T17:21:22.150Z,16.40
2023-03-07T17:26:39.077Z,14.50
2023-03-07T17:31:42.081Z,13.88
2023-03-07T17:36:43.702Z,15.23
2023-03-07T17:41:45.340Z,16.80
2023-03-07T17:46:47.007Z,13.98
2023-03-07T17:51:48.856Z,15.13
2023-03-07T17:56:50.945Z,18.15
2023-03-07T18:01:52.731Z,15.00
2023-03-07T18:06:54.408Z,17.33
2023-03-07T18:11:56.329Z,15.68
2023-03-07T18:16:57.969Z,15.80
2023-03-07T18:21:59.703Z,14.68
2023-03-07T18:27:02.436Z,15.77
2023-03-07T18:32:04.178Z,16.08
2023-03-07T18:37:08.199Z,17.15
2023-03-07T18:42:10.313Z,16.33
2023-03-07T18:47:12.094Z,16.20
2023-03-07T18:52:13.696Z,15.70
2023-03-07T18:57:15.644Z,16.15
2023-03-07T19:02:17.318Z,15.45
2023-03-07T19:07:18.984Z,15.02
2023-03-07T19:12:20.774Z,15.77
2023-03-07T19:17:22.615Z,14.77
2023-03-07T19:22:27.397Z,15.32
2023-03-07T19:27:32.009Z,21.48
2023-03-07T19:32:33.713Z,16.33
2023-03-07T19:37:36.438Z,14.18
2023-03-07T19:42:38.188Z,16.10
2023-03-07T19:47:39.797Z,15.75
2023-03-07T19:52:42.099Z,14.85
2023-03-07T19:57:43.803Z,16.95
2023-03-07T20:02:45.484Z,21.85
2023-03-07T20:07:47.089Z,15.13
2023-03-07T20:12:48.859Z,16.95
2023-03-07T20:17:50.506Z,20.35
2023-03-07T20:22:56.637Z,14.90
2023-03-07T20:27:58.454Z,16.48
2023-03-07T20:33:00.095Z,16.88
2023-03-07T20:38:01.712Z,17.58
2023-03-07T20:43:05.396Z,14.70
2023-03-07T20:48:07.261Z,14.23
2023-03-07T20:53:08.875Z,13.68
2023-03-07T20:58:10.486Z,13.52
2023-03-07T21:03:13.520Z,11.52
2023-03-07T21:08:16.442Z,9.75
2023-03-07T21:13:18.580Z,7.10
2023-03-07T21:18:20.904Z,7.47
2023-03-07T21:23:23.777Z,5.65
2023-03-07T21:28:25.397Z,4.57
2023-03-07T21:33:27.245Z,4.63
2023-03-07T21:38:29.931Z,3.20
2023-03-07T21:43:32.283Z,2.90
2023-03-07T21:48:34.706Z,4.57
2023-03-07T21:53:37.011Z,2.33
2023-03-07T21:58:40.035Z,2.67
2023-03-07T22:03:42.348Z,2.90
2023-03-07T22:08:44.099Z,2.55
2023-03-07T22:13:45.730Z,1.90
2023-03-07T22:18:55.227Z,2.05
2023-03-07T22:24:00.945Z,2.40
2023-03-07T22:29:03.535Z,2.38
2023-03-07T22:34:05.219Z,3.92
2023-03-07T22:39:09.607Z,3.13
2023-03-07T22:44:11.501Z,3.47
2023-03-07T22:49:13.395Z,3.70
2023-03-07T22:54:15.088Z,5.03
2023-03-07T22:59:16.762Z,4.23
2023-03-07T23:04:18.401Z,4.43
2023-03-07T23:09:20.064Z,4.20
2023-03-07T23:14:21.758Z,3.80
2023-03-07T23:19:23.366Z,5.07
2023-03-07T23:24:24.961Z,3.88
2023-03-07T23:29:28.065Z,4.23
2023-03-07T23:34:29.984Z,5.33
2023-03-07T23:39:31.622Z,6.23
2023-03-07T23:44:33.251Z,8.00
2023-03-07T23:49:34.920Z,8.27
2023-03-07T23:54:36.665Z,5.72
2023-03-07T23:59:38.358Z,6.03
